createdAt,value
2023-03-14T00:00:15.012Z,10.04
2023-03-14T00:03:39.103Z,9.83
2023-03-14T00:07:00.649Z,9.85
2023-03-14T00:10:22.429Z,10.06
2023-03-14T00:13:44.116Z,10.15
2023-03-14T00:17:06.005Z,10.19
2023-03-14T00:20:29.951Z,10.16
2023-03-14T00:23:52.163Z,10.06
2023-03-14T00:27:14.130Z,10.09
2023-03-14T00:30:41.514Z,10.05
2023-03-14T00:34:06.301Z,10.01
2023-03-14T00:37:28.472Z,10.11
2023-03-14T00:40:50.032Z,9.90
2023-03-14T00:44:13.852Z,9.90
2023-03-14T00:47:35.514Z,10.01
2023-03-14T00:50:59.613Z,10.08
2023-03-14T00:54:21.935Z,10.08
2023-03-14T00:57:48.031Z,10.12
2023-03-14T01:01:19.184Z,10.14
2023-03-14T01:04:40.796Z,10.06
2023-03-14T01:08:05.815Z,10.09
2023-03-14T01:11:33.386Z,10.04
2023-03-14T01:14:54.972Z,9.94
2023-03-14T01:18:16.597Z,9.99
2023-03-14T01:21:45.504Z,9.95
2023-03-14T01:25:11.736Z,9.91
2023-03-14T01:28:35.325Z,9.93
2023-03-14T01:31:57.216Z,9.97
2023-03-14T01:35:20.958Z,10.02
2023-03-14T01:38:42.724Z,10.05
2023-03-14T01:42:04.530Z,10.06
2023-03-14T01:46:03.852Z,10.01
2023-03-14T01:49:34.870Z,9.99
2023-03-14T01:52:56.705Z,9.87
2023-03-14T01:56:23.645Z,9.81
2023-03-14T01:59:51.781Z,9.64
2023-03-14T02:03:18.758Z,9.47
2023-03-14T02:07:00.525Z,9.50
2023-03-14T02:10:30.341Z,9.58
2023-03-14T02:13:54.690Z,9.56
2023-03-14T02:17:23.741Z,9.32
2023-03-14T02:21:04.481Z,9.40
2023-03-14T02:24:36.050Z,9.30
2023-03-14T02:27:58.465Z,9.25
2023-03-14T02:31:22.297Z,9.26
2023-03-14T02:34:48.398Z,9.22
2023-03-14T02:38:25.801Z,9.27
2023-03-14T02:41:50.088Z,9.26
2023-03-14T02:45:11.628Z,9.19
2023-03-14T02:48:59.133Z,9.16
2023-03-14T02:52:20.698Z,9.23
2023-03-14T02:55:46.241Z,9.25
2023-03-14T02:59:10.426Z,9.20
2023-03-14T03:02:32.364Z,9.19
2023-03-14T03:05:58.773Z,9.27
2023-03-14T03:09:23.123Z,9.29
2023-03-14T03:12:49.436Z,9.32
2023-03-14T03:16:14.610Z,9.43
2023-03-14T03:19:36.684Z,9.47
2023-03-14T03:23:02.142Z,9.39
2023-03-14T03:26:26.235Z,9.54
2023-03-14T03:29:48.577Z,9.54
2023-03-14T03:33:12.913Z,9.57
2023-03-14T03:36:35.272Z,9.61
2023-03-14T03:39:56.844Z,9.73
2023-03-14T03:43:19.324Z,9.77
2023-03-14T03:46:43.323Z,9.81
2023-03-14T03:50:05.520Z,9.95
2023-03-14T03:53:33.855Z,9.90
2023-03-14T03:56:58.536Z,9.75
2023-03-14T04:00:20.126Z,9.64
2023-03-14T04:03:49.861Z,9.63
2023-03-14T04:07:13.161Z,9.61
2023-03-14T04:10:37.710Z,9.66
2023-03-14T04:14:04.608Z,9.74
2023-03-14T04:17:26.272Z,9.70
2023-03-14T04:20:55.606Z,9.77
2023-03-14T04:24:19.529Z,9.91
2023-03-14T04:27:43.382Z,9.91
2023-03-14T04:31:12.924Z,9.87
2023-03-14T04:34:37.030Z,9.75
2023-03-14T04:37:58.952Z,9.71
2023-03-14T04:41:20.645Z,9.77
2023-03-14T04:44:44.362Z,9.83
2023-03-14T04:48:06.247Z,9.75
2023-03-14T04:51:28.410Z,9.80
2023-03-14T04:54:52.009Z,9.81
2023-03-14T04:58:15.832Z,9.75
2023-03-14T05:01:37.480Z,9.75
2023-03-14T05:05:01.739Z,9.70
2023-03-14T05:08:23.321Z,9.74
2023-03-14T05:11:44.939Z,9.80
2023-03-14T05:15:07.046Z,9.91
2023-03-14T05:18:28.633Z,9.95
2023-03-14T05:21:50.249Z,9.94
2023-03-14T05:25:12.299Z,9.91
2023-03-14T05:28:35.986Z,9.83
2023-03-14T05:31:57.703Z,9.80
2023-03-14T05:35:21.598Z,9.84
2023-03-14T05:38:45.728Z,9.95
2023-03-14T05:42:07.310Z,10.02
2023-03-14T05:45:28.976Z,10.12
2023-03-14T05:48:50.610Z,10.05
2023-03-14T05:52:13.205Z,10.33
2023-03-14T05:55:37.065Z,10.42
2023-03-14T05:59:04.266Z,10.57
2023-03-14T06:02:25.908Z,10.90
2023-03-14T06:05:47.604Z,10.87
2023-03-14T06:09:09.192Z,11.11
2023-03-14T06:12:32.995Z,11.39
2023-03-14T06:15:54.632Z,11.67
2023-03-14T06:19:16.288Z,11.90
2023-03-14T06:22:37.967Z,11.94
2023-03-14T06:26:00.256Z,11.90
2023-03-14T06:29:24.315Z,11.91
2023-03-14T06:32:46.097Z,11.89
2023-03-14T06:36:08.298Z,11.84
2023-03-14T06:39:32.902Z,11.89
2023-03-14T06:42:54.490Z,11.76
2023-03-14T06:46:16.611Z,11.76
2023-03-14T06:49:38.237Z,11.97
2023-03-14T06:53:04.708Z,11.98
2023-03-14T06:56:26.312Z,11.91
2023-03-14T06:59:48.034Z,12.05
2023-03-14T07:03:13.920Z,12.00
2023-03-14T07:06:35.517Z,12.14
2023-03-14T07:09:57.130Z,12.27
2023-03-14T07:13:20.940Z,12.38
2023-03-14T07:16:46.122Z,12.65
2023-03-14T07:20:09.030Z,12.83
2023-03-14T07:23:31.886Z,12.95
2023-03-14T07:30:16.647Z,13.18
2023-03-14T07:33:38.433Z,13.28
2023-03-14T07:37:00.035Z,13.48
2023-03-14T07:40:24.003Z,13.79
2023-03-14T07:43:50.328Z,14.08
2023-03-14T07:47:14.178Z,14.30
2023-03-14T07:50:35.759Z,14.23
2023-03-14T07:53:57.394Z,14.33
2023-03-14T07:57:18.950Z,14.33
2023-03-14T08:00:40.848Z,14.43
2023-03-14T08:04:02.571Z,14.54
2023-03-14T08:07:26.965Z,14.82
2023-03-14T08:10:48.626Z,14.98
2023-03-14T08:14:12.718Z,15.20
2023-03-14T08:17:34.329Z,15.32
2023-03-14T08:21:00.447Z,15.33
2023-03-14T08:24:24.496Z,15.39
2023-03-14T08:27:50.589Z,15.78
2023-03-14T08:31:12.287Z,15.97
2023-03-14T08:34:34.846Z,16.13
2023-03-14T08:37:56.837Z,16.40
2023-03-14T08:41:21.364Z,16.74
2023-03-14T08:44:43.085Z,17.12
2023-03-14T08:48:05.202Z,17.49
2023-03-14T08:51:26.846Z,17.65
2023-03-14T08:54:51.021Z,17.90
2023-03-14T08:58:12.597Z,18.20
2023-03-14T09:01:36.556Z,18.21
2023-03-14T09:05:00.427Z,18.37
2023-03-14T09:08:22.034Z,18.51
2023-03-14T09:11:45.939Z,18.32
2023-03-14T09:15:08.392Z,18.58
2023-03-14T09:18:30.108Z,18.86
2023-03-14T09:21:51.762Z,19.27
2023-03-14T09:25:18.417Z,19.41
2023-03-14T09:28:40.081Z,19.07
2023-03-14T09:32:01.925Z,19.20
2023-03-14T09:35:29.639Z,19.39
2023-03-14T09:38:51.258Z,18.97
2023-03-14T09:42:18.221Z,18.92
2023-03-14T09:45:43.768Z,19.16
2023-03-14T09:49:12.716Z,19.43
2023-03-14T09:52:40.862Z,19.75
2023-03-14T09:56:04.792Z,19.61
2023-03-14T09:59:29.870Z,19.78
2023-03-14T10:03:12.257Z,19.76
2023-03-14T10:06:35.752Z,19.85
2023-03-14T10:09:57.633Z,20.10
2023-03-14T10:13:27.041Z,19.87
2023-03-14T10:16:49.416Z,19.59
2023-03-14T10:20:42.722Z,19.86
2023-03-14T10:24:23.860Z,20.16
2023-03-14T10:27:45.507Z,20.34
2023-03-14T10:31:08.149Z,20.60
2023-03-14T10:34:35.926Z,20.24
2023-03-14T10:38:04.724Z,20.10
2023-03-14T10:41:28.165Z,19.90
2023-03-14T10:44:58.918Z,19.76
2023-03-14T10:48:25.263Z,19.74
2023-03-14T10:51:46.999Z,19.83
2023-03-14T10:55:13.971Z,19.65
2023-03-14T10:58:41.338Z,19.65
2023-03-14T11:02:15.770Z,19.90
2023-03-14T11:05:39.857Z,20.22
2023-03-14T11:09:34.617Z,20.48
2023-03-14T11:13:03.748Z,20.60
2023-03-14T11:16:46.190Z,20.40
2023-03-14T11:20:42.266Z,20.77
2023-03-14T11:24:33.026Z,21.20
2023-03-14T11:28:18.313Z,21.39
2023-03-14T11:31:42.887Z,21.25
2023-03-14T11:35:19.329Z,21.37
2023-03-14T11:38:56.428Z,21.33
2023-03-14T11:42:19.434Z,21.10
2023-03-14T11:45:45.540Z,20.84
2023-03-14T11:49:31.736Z,20.51
2023-03-14T11:53:16.781Z,20.54
2023-03-14T11:56:46.999Z,20.30
2023-03-14T12:00:22.823Z,20.39
2023-03-14T12:03:58.757Z,20.72
2023-03-14T12:07:25.355Z,21.13
2023-03-14T12:10:51.122Z,21.20
2023-03-14T12:14:29.216Z,21.05
2023-03-14T12:17:56.318Z,21.08
2023-03-14T12:21:18.736Z,21.40
2023-03-14T12:24:48.513Z,21.84
2023-03-14T12:28:20.748Z,21.46
2023-03-14T12:32:06.728Z,21.42
2023-03-14T12:35:40.831Z,21.15
2023-03-14T12:39:14.134Z,20.81
2023-03-14T12:42:45.690Z,20.68
2023-03-14T12:46:28.061Z,20.51
2023-03-14T12:49:53.375Z,20.43
2023-03-14T12:53:28.666Z,20.29
2023-03-14T12:57:14.767Z,20.17
2023-03-14T13:00:42.109Z,20.10
2023-03-14T13:04:11.275Z,20.06
2023-03-14T13:07:36.975Z,19.99
2023-03-14T13:10:58.681Z,19.93
2023-03-14T13:14:20.680Z,19.95
2023-03-14T13:17:45.167Z,20.10
2023-03-14T13:21:11.026Z,20.13
2023-03-14T13:24:35.466Z,20.22
2023-03-14T13:27:57.764Z,20.16
2023-03-14T13:31:26.225Z,20.10
2023-03-14T13:34:49.682Z,20.03
2023-03-14T13:38:18.751Z,19.85
2023-03-14T13:41:41.901Z,19.82
2023-03-14T13:45:06.838Z,19.58
2023-03-14T13:48:30.994Z,19.53
2023-03-14T13:51:52.982Z,19.48
2023-03-14T13:55:21.758Z,19.43
2023-03-14T13:58:43.843Z,19.41
2023-03-14T14:02:18.511Z,19.37
2023-03-14T14:05:42.429Z,19.34
2023-03-14T14:09:14.299Z,19.35
2023-03-14T14:13:12.125Z,19.32
2023-03-14T14:16:36.519Z,19.31
2023-03-14T14:19:58.952Z,19.35
2023-03-14T14:23:26.682Z,19.32
2023-03-14T14:27:08.563Z,19.28
2023-03-14T14:30:33.900Z,19.24
2023-03-14T14:33:59.362Z,19.37
2023-03-14T14:37:25.731Z,19.61
2023-03-14T14:40:50.678Z,19.76
2023-03-14T14:44:13.628Z,19.87
2023-03-14T14:47:35.286Z,19.87
2023-03-14T14:51:00.995Z,19.69
2023-03-14T14:54:35.221Z,19.41
2023-03-14T14:57:59.818Z,19.24
2023-03-14T15:01:24.779Z,19.45
2023-03-14T15:04:48.147Z,19.35
2023-03-14T15:08:10.922Z,19.26
2023-03-14T15:11:32.619Z,18.97
2023-03-14T15:14:56.772Z,18.82
2023-03-14T15:18:19.855Z,18.61
2023-03-14T15:21:41.500Z,18.51
2023-03-14T15:25:05.993Z,18.37
2023-03-14T15:28:33.426Z,18.31
2023-03-14T15:31:55.024Z,18.34
2023-03-14T15:35:19.114Z,18.25
2023-03-14T15:38:40.970Z,18.17
2023-03-14T15:42:05.559Z,18.15
2023-03-14T15:45:29.629Z,18.17
2023-03-14T15:48:55.768Z,18.28
2023-03-14T15:52:17.434Z,18.45
2023-03-14T15:55:39.090Z,18.38
2023-03-14T15:59:06.429Z,18.31
2023-03-14T16:02:28.021Z,18.37
2023-03-14T16:05:52.113Z,18.00
2023-03-14T16:09:16.137Z,17.49
2023-03-14T16:12:38.116Z,17.28
2023-03-14T16:16:07.126Z,17.00
2023-03-14T16:19:32.041Z,16.83
2023-03-14T16:22:53.755Z,16.32
2023-03-14T16:26:20.450Z,16.38
2023-03-14T16:29:42.591Z,16.16
2023-03-14T16:36:52.205Z,16.13
2023-03-14T16:40:14.062Z,16.18
2023-03-14T16:43:38.422Z,16.01
2023-03-14T16:47:00.132Z,15.64
2023-03-14T16:50:21.688Z,15.78
2023-03-14T16:53:44.159Z,15.90
2023-03-14T16:57:05.813Z,16.12
2023-03-14T17:00:27.876Z,16.49
2023-03-14T17:03:53.928Z,16.59
2023-03-14T17:07:18.038Z,16.98
2023-03-14T17:10:41.890Z,17.22
2023-03-14T17:14:07.320Z,17.19
2023-03-14T17:17:28.907Z,16.61
2023-03-14T17:20:59.709Z,16.12
2023-03-14T17:24:21.303Z,15.30
2023-03-14T17:27:46.327Z,15.05
2023-03-14T17:31:10.403Z,14.88
2023-03-14T17:34:34.123Z,15.00
2023-03-14T17:37:58.404Z,15.09
2023-03-14T17:41:20.030Z,15.20
2023-03-14T17:44:43.954Z,14.91
2023-03-14T17:48:05.803Z,14.57
2023-03-14T17:51:30.662Z,14.34
2023-03-14T17:54:52.312Z,14.30
2023-03-14T17:58:16.283Z,14.57
2023-03-14T18:01:38.554Z,14.65
2023-03-14T18:05:00.792Z,14.45
2023-03-14T18:08:22.411Z,14.31
2023-03-14T18:11:44.055Z,14.38
2023-03-14T18:15:06.150Z,14.47
2023-03-14T18:18:29.935Z,14.48
2023-03-14T18:21:54.132Z,14.57
2023-03-14T18:25:15.777Z,14.79
2023-03-14T18:28:37.448Z,14.85
2023-03-14T18:31:59.202Z,14.77
2023-03-14T18:35:20.849Z,14.56
2023-03-14T18:38:48.411Z,14.52
2023-03-14T18:42:14.794Z,14.56
2023-03-14T18:45:42.210Z,14.52
2023-03-14T18:49:04.146Z,14.44
2023-03-14T18:52:28.769Z,14.51
2023-03-14T18:55:53.342Z,14.44
2023-03-14T18:59:17.653Z,14.60
2023-03-14T19:02:39.866Z,14.61
2023-03-14T19:06:04.244Z,14.61
2023-03-14T19:09:28.504Z,14.63
2023-03-14T19:12:50.453Z,14.61
2023-03-14T19:16:14.094Z,14.63
2023-03-14T19:19:35.748Z,14.67
2023-03-14T19:22:58.475Z,14.64
2023-03-14T19:26:22.828Z,14.57
2023-03-14T19:29:46.930Z,14.58
2023-03-14T19:33:13.725Z,14.92
2023-03-14T19:36:38.789Z,15.39
2023-03-14T19:40:00.520Z,15.73
2023-03-14T19:43:24.774Z,15.85
2023-03-14T19:46:46.379Z,15.91
2023-03-14T19:50:09.057Z,15.95
2023-03-14T19:53:31.465Z,15.68
2023-03-14T19:56:55.580Z,15.39
2023-03-14T20:00:18.754Z,15.09
2023-03-14T20:03:40.726Z,14.91
2023-03-14T20:07:04.767Z,14.87
2023-03-14T20:10:26.391Z,14.89
2023-03-14T20:13:47.962Z,14.88
2023-03-14T20:17:11.861Z,14.74
2023-03-14T20:20:33.897Z,14.61
2023-03-14T20:23:55.493Z,14.50
2023-03-14T20:27:17.050Z,14.54
2023-03-14T20:30:38.785Z,14.70
2023-03-14T20:34:02.692Z,14.61
2023-03-14T20:37:27.019Z,14.60
2023-03-14T20:40:48.654Z,14.50
2023-03-14T20:44:13.624Z,14.43
2023-03-14T20:47:35.635Z,14.54
2023-03-14T20:50:59.638Z,14.47
2023-03-14T20:54:23.451Z,14.37
2023-03-14T20:57:45.514Z,14.16
2023-03-14T21:01:07.139Z,14.06
2023-03-14T21:04:29.116Z,13.82
2023-03-14T21:07:53.077Z,13.69
2023-03-14T21:11:14.697Z,13.62
2023-03-14T21:14:36.272Z,14.09
2023-03-14T21:17:57.876Z,14.44
2023-03-14T21:21:19.532Z,14.72
2023-03-14T21:24:44.236Z,14.99
2023-03-14T21:28:08.281Z,15.10
2023-03-14T21:31:33.206Z,15.15
2023-03-14T21:34:57.021Z,14.96
2023-03-14T21:38:18.611Z,14.61
2023-03-14T21:41:45.856Z,14.38
2023-03-14T21:45:10.757Z,14.20
2023-03-14T21:48:34.061Z,14.02
2023-03-14T21:51:57.990Z,13.89
2023-03-14T21:55:25.240Z,14.03
2023-03-14T21:58:47.309Z,13.86
2023-03-14T22:02:13.528Z,13.85
2023-03-14T22:05:40.223Z,13.81
2023-03-14T22:09:02.052Z,13.85
2023-03-14T22:12:23.799Z,13.75
2023-03-14T22:15:47.149Z,13.79
2023-03-14T22:19:08.820Z,13.79
2023-03-14T22:22:30.385Z,13.65
2023-03-14T22:25:56.821Z,13.82
2023-03-14T22:29:18.644Z,13.58
2023-03-14T22:32:40.317Z,13.26
2023-03-14T22:36:04.437Z,13.14
2023-03-14T22:39:27.232Z,13.17
2023-03-14T22:42:54.738Z,13.03
2023-03-14T22:46:16.392Z,13.04
2023-03-14T22:49:42.902Z,13.18
2023-03-14T22:53:04.505Z,13.17
2023-03-14T22:56:28.254Z,13.26
2023-03-14T22:59:52.374Z,13.03
2023-03-14T23:03:14.404Z,12.65
2023-03-14T23:06:38.572Z,12.85
2023-03-14T23:10:03.944Z,13.02
2023-03-14T23:13:27.919Z,13.04
2023-03-14T23:16:50.366Z,12.88
2023-03-14T23:20:13.152Z,12.95
2023-03-14T23:23:34.973Z,12.80
2023-03-14T23:26:58.649Z,12.75
2023-03-14T23:30:22.830Z,12.48
2023-03-14T23:33:45.518Z,12.52
2023-03-14T23:37:07.119Z,12.66
2023-03-14T23:40:28.717Z,12.69
2023-03-14T23:43:50.408Z,12.68
2023-03-14T23:47:12.038Z,12.56
2023-03-14T23:50:40.100Z,12.31
2023-03-14T23:54:01.680Z,12.23
2023-03-14T23:57:23.242Z,11.82
